createdAt,value
2023-05-21T00:01:09.663Z,64.60
2023-05-21T00:04:51.627Z,64.80
2023-05-21T00:08:34.442Z,65.10
2023-05-21T00:12:16.347Z,65.20
2023-05-21T00:15:58.232Z,65.40
2023-05-21T00:19:40.371Z,65.40
2023-05-21T00:23:22.299Z,65.70
2023-05-21T00:27:04.205Z,66.00
2023-05-21T00:30:47.348Z,66.20
2023-05-21T00:34:29.676Z,66.40
2023-05-21T00:38:11.543Z,66.60
2023-05-21T00:41:54.081Z,66.90
2023-05-21T00:45:37.458Z,67.00
2023-05-21T00:49:22.457Z,67.20
2023-05-21T00:53:04.927Z,67.40
2023-05-21T00:56:47.922Z,67.80
2023-05-21T01:00:30.776Z,68.20
2023-05-21T01:04:13.260Z,68.30
2023-05-21T01:07:56.922Z,68.50
2023-05-21T01:11:46.698Z,68.70
2023-05-21T01:15:29.359Z,68.90
2023-05-21T01:19:16.137Z,69.20
2023-05-21T01:22:58.376Z,69.20
2023-05-21T01:26:42.786Z,69.40
2023-05-21T01:30:25.557Z,69.60
2023-05-21T01:34:11.397Z,69.90
2023-05-21T01:37:59.667Z,69.80
2023-05-21T01:41:44.970Z,69.90
2023-05-21T01:45:29.718Z,70.20
2023-05-21T01:49:11.778Z,70.20
2023-05-21T01:52:57.068Z,70.20
2023-05-21T01:56:38.958Z,70.10
2023-05-21T02:00:26.940Z,70.30
2023-05-21T02:04:08.905Z,70.70
2023-05-21T02:07:55.011Z,71.00
2023-05-21T02:11:36.880Z,71.10
2023-05-21T02:15:19.327Z,71.20
2023-05-21T02:19:01.194Z,71.40
2023-05-21T02:22:45.307Z,71.50
2023-05-21T02:26:27.521Z,71.70
2023-05-21T02:30:13.957Z,72.00
2023-05-21T02:33:56.379Z,72.40
2023-05-21T02:37:40.436Z,72.20
2023-05-21T02:41:23.214Z,72.40
2023-05-21T02:45:11.932Z,72.50
2023-05-21T02:48:53.755Z,72.70
2023-05-21T02:52:35.724Z,72.70
2023-05-21T02:56:18.622Z,73.00
2023-05-21T03:00:00.538Z,73.30
2023-05-21T03:03:42.489Z,73.20
2023-05-21T03:07:24.442Z,74.00
2023-05-21T03:11:06.342Z,73.50
2023-05-21T03:14:51.318Z,73.60
2023-05-21T03:18:33.180Z,74.00
2023-05-21T03:22:15.143Z,74.00
2023-05-21T03:25:57.044Z,74.20
2023-05-21T03:29:40.075Z,74.30
2023-05-21T03:33:22.627Z,74.40
2023-05-21T03:37:04.660Z,74.50
2023-05-21T03:40:47.028Z,74.50
2023-05-21T03:44:32.456Z,74.90
2023-05-21T03:48:14.430Z,75.00
2023-05-21T03:51:56.291Z,75.20
2023-05-21T03:55:38.492Z,75.20
2023-05-21T03:59:20.419Z,75.40
2023-05-21T04:03:02.389Z,75.50
2023-05-21T04:06:44.561Z,75.60
2023-05-21T04:10:27.007Z,75.80
2023-05-21T04:14:08.895Z,76.00
2023-05-21T04:17:52.367Z,76.10
2023-05-21T04:21:34.473Z,76.20
2023-05-21T04:25:16.354Z,76.30
2023-05-21T04:28:59.484Z,76.40
2023-05-21T04:32:41.554Z,76.60
2023-05-21T04:36:24.428Z,76.70
2023-05-21T04:40:06.840Z,76.90
2023-05-21T04:43:48.740Z,76.90
2023-05-21T04:47:30.716Z,77.00
2023-05-21T04:51:12.598Z,77.30
2023-05-21T04:54:54.414Z,77.60
2023-05-21T04:58:36.542Z,77.70
2023-05-21T05:02:18.776Z,77.90
2023-05-21T05:06:01.512Z,78.10
2023-05-21T05:09:44.029Z,78.20
2023-05-21T05:13:26.253Z,78.40
2023-05-21T05:17:10.613Z,78.40
2023-05-21T05:20:52.555Z,78.50
2023-05-21T05:24:34.363Z,78.70
2023-05-21T05:28:16.238Z,78.80
2023-05-21T05:31:58.056Z,78.90
2023-05-21T05:35:39.924Z,79.00
2023-05-21T05:39:22.039Z,79.20
2023-05-21T05:43:03.916Z,79.20
2023-05-21T05:46:45.843Z,79.30
2023-05-21T05:50:28.086Z,79.40
2023-05-21T05:54:10.086Z,79.30
2023-05-21T05:57:52.143Z,79.40
2023-05-21T06:01:34.437Z,79.40
2023-05-21T06:05:16.703Z,79.50
2023-05-21T06:08:58.670Z,79.40
2023-05-21T06:12:40.571Z,79.70
2023-05-21T06:16:22.464Z,79.80
2023-05-21T06:20:05.803Z,79.40
2023-05-21T06:23:47.642Z,78.50
2023-05-21T06:27:29.521Z,76.90
2023-05-21T06:31:11.883Z,75.10
2023-05-21T06:34:53.945Z,73.30
2023-05-21T06:38:35.767Z,71.50
2023-05-21T06:42:17.651Z,69.90
2023-05-21T06:46:02.466Z,68.50
2023-05-21T06:49:44.338Z,66.80
2023-05-21T06:53:26.243Z,65.00
2023-05-21T06:57:08.271Z,63.50
2023-05-21T07:00:50.203Z,62.30
2023-05-21T07:04:32.191Z,61.90
2023-05-21T07:08:14.071Z,60.90
2023-05-21T07:11:55.950Z,60.00
2023-05-21T07:15:38.146Z,59.50
2023-05-21T07:19:20.361Z,59.20
2023-05-21T07:23:02.339Z,58.50
2023-05-21T07:26:44.214Z,58.40
2023-05-21T07:30:26.111Z,57.00
2023-05-21T07:34:07.975Z,56.60
2023-05-21T07:37:51.390Z,55.90
2023-05-21T07:41:33.318Z,55.30
2023-05-21T07:45:15.363Z,54.90
2023-05-21T07:48:57.315Z,54.60
2023-05-21T07:52:39.241Z,55.50
2023-05-21T07:56:21.628Z,56.00
2023-05-21T08:00:05.738Z,56.10
2023-05-21T08:03:47.840Z,55.20
2023-05-21T08:07:29.874Z,54.20
2023-05-21T08:11:11.826Z,53.00
2023-05-21T08:14:53.710Z,51.80
2023-05-21T08:18:35.590Z,51.30
2023-05-21T08:22:18.063Z,50.20
2023-05-21T08:26:00.022Z,49.70
2023-05-21T08:29:42.310Z,49.10
2023-05-21T08:33:24.265Z,47.70
2023-05-21T08:37:06.150Z,47.60
2023-05-21T08:40:49.755Z,46.40
2023-05-21T08:44:34.540Z,45.80
2023-05-21T08:48:17.695Z,46.60
2023-05-21T08:52:00.584Z,46.40
2023-05-21T08:55:43.849Z,47.20
2023-05-21T08:59:26.662Z,48.30
2023-05-21T09:03:11.321Z,50.00
2023-05-21T09:06:55.220Z,50.60
2023-05-21T09:10:39.701Z,52.20
2023-05-21T09:14:23.293Z,52.60
2023-05-21T09:18:05.209Z,53.60
2023-05-21T09:21:47.166Z,54.00
2023-05-21T09:25:29.424Z,54.70
2023-05-21T09:29:13.652Z,52.90
2023-05-21T09:33:00.252Z,52.40
2023-05-21T09:36:43.863Z,52.40
2023-05-21T09:40:26.018Z,51.40
2023-05-21T09:44:07.907Z,50.30
2023-05-21T09:47:51.520Z,48.50
2023-05-21T09:51:33.468Z,46.90
2023-05-21T09:55:16.457Z,45.40
2023-05-21T09:59:01.999Z,43.90
2023-05-21T10:02:47.310Z,42.60
2023-05-21T10:06:30.152Z,42.20
2023-05-21T10:10:15.076Z,48.40
2023-05-21T10:14:16.840Z,40.80
2023-05-21T10:17:59.770Z,42.70
2023-05-21T10:21:42.177Z,39.70
2023-05-21T10:25:25.750Z,39.90
2023-05-21T10:29:09.053Z,38.80
2023-05-21T10:32:51.572Z,38.80
2023-05-21T10:36:35.684Z,38.30
2023-05-21T10:40:18.809Z,38.10
2023-05-21T10:44:14.556Z,38.40
2023-05-21T10:47:56.466Z,37.90
2023-05-21T10:51:56.971Z,37.70
2023-05-21T10:55:47.050Z,39.20
2023-05-21T10:59:44.194Z,37.40
2023-05-21T11:03:26.368Z,39.00
2023-05-21T11:07:08.574Z,36.20
2023-05-21T11:11:00.110Z,35.90
2023-05-21T11:14:43.575Z,36.80
2023-05-21T11:18:38.073Z,35.30
2023-05-21T11:22:25.510Z,36.00
2023-05-21T11:26:07.642Z,34.90
2023-05-21T11:29:55.744Z,35.30
2023-05-21T11:33:37.711Z,35.00
2023-05-21T11:37:29.408Z,34.50
2023-05-21T11:41:11.450Z,33.00
2023-05-21T11:44:53.379Z,32.80
2023-05-21T11:48:38.099Z,33.60
2023-05-21T11:52:20.186Z,33.20
2023-05-21T11:56:02.688Z,33.00
2023-05-21T11:59:45.660Z,33.70
2023-05-21T12:03:27.734Z,33.90
2023-05-21T12:07:11.330Z,33.20
2023-05-21T12:10:59.326Z,34.30
2023-05-21T12:14:47.807Z,34.20
2023-05-21T12:18:29.722Z,33.30
2023-05-21T12:22:11.661Z,33.30
2023-05-21T12:25:54.088Z,33.30
2023-05-21T12:29:43.645Z,34.10
2023-05-21T12:33:26.099Z,34.70
2023-05-21T12:37:08.962Z,33.10
2023-05-21T12:40:50.961Z,33.60
2023-05-21T12:44:34.399Z,34.60
2023-05-21T12:48:17.891Z,33.70
2023-05-21T12:51:59.748Z,37.80
2023-05-21T12:55:41.682Z,34.10
2023-05-21T12:59:23.560Z,33.20
2023-05-21T13:03:06.724Z,33.30
2023-05-21T13:06:48.882Z,33.50
2023-05-21T13:10:30.999Z,33.30
2023-05-21T13:14:12.868Z,33.10
2023-05-21T13:17:56.758Z,32.50
2023-05-21T13:21:39.004Z,32.60
2023-05-21T13:25:24.823Z,32.20
2023-05-21T13:29:06.948Z,33.10
2023-05-21T13:32:48.972Z,32.70
2023-05-21T13:36:31.349Z,31.90
2023-05-21T13:40:15.925Z,32.60
2023-05-21T13:43:58.836Z,31.90
2023-05-21T13:47:41.275Z,31.90
2023-05-21T13:51:37.495Z,32.00
2023-05-21T13:55:20.832Z,33.50
2023-05-21T13:59:02.771Z,32.40
2023-05-21T14:02:44.951Z,33.00
2023-05-21T14:06:27.119Z,33.30
2023-05-21T14:10:09.278Z,34.00
2023-05-21T14:13:51.376Z,35.00
2023-05-21T14:17:33.324Z,35.30
2023-05-21T14:21:15.331Z,35.90
2023-05-21T14:24:57.350Z,37.40
2023-05-21T14:28:39.260Z,36.80
2023-05-21T14:32:21.696Z,36.40
2023-05-21T14:36:04.799Z,36.90
2023-05-21T14:39:49.532Z,37.10
2023-05-21T14:43:31.469Z,38.20
2023-05-21T14:47:13.384Z,37.20
2023-05-21T14:50:55.474Z,37.80
2023-05-21T14:54:37.616Z,38.90
2023-05-21T14:58:19.479Z,37.30
2023-05-21T15:02:01.402Z,37.60
2023-05-21T15:05:43.291Z,38.30
2023-05-21T15:09:25.377Z,37.90
2023-05-21T15:13:07.209Z,38.70
2023-05-21T15:16:49.226Z,38.80
2023-05-21T15:20:31.118Z,38.60
2023-05-21T15:24:12.986Z,38.40
2023-05-21T15:27:55.437Z,39.30
2023-05-21T15:31:39.533Z,40.20
2023-05-21T15:35:21.595Z,39.50
2023-05-21T15:39:03.938Z,40.50
2023-05-21T15:42:45.907Z,39.90
2023-05-21T15:46:27.843Z,38.90
2023-05-21T15:50:10.705Z,39.00
2023-05-21T15:53:52.690Z,38.90
2023-05-21T15:57:34.531Z,39.10
2023-05-21T16:01:16.626Z,40.00
2023-05-21T16:04:59.177Z,39.90
2023-05-21T16:08:41.132Z,39.30
2023-05-21T16:12:23.125Z,40.30
2023-05-21T16:16:05.376Z,40.40
2023-05-21T16:19:47.756Z,40.00
2023-05-21T16:23:29.943Z,40.30
2023-05-21T16:27:12.004Z,39.20
2023-05-21T16:30:53.855Z,39.20
2023-05-21T16:34:36.332Z,39.40
2023-05-21T16:38:18.321Z,40.20
2023-05-21T16:42:01.317Z,40.50
2023-05-21T16:45:45.069Z,41.00
2023-05-21T16:49:27.977Z,41.10
2023-05-21T16:53:11.417Z,40.60
2023-05-21T16:56:54.572Z,40.80
2023-05-21T17:00:36.664Z,41.00
2023-05-21T17:04:18.650Z,41.80
2023-05-21T17:08:00.595Z,41.90
2023-05-21T17:11:43.683Z,42.00
2023-05-21T17:15:26.802Z,41.40
2023-05-21T17:19:09.219Z,41.70
2023-05-21T17:22:51.290Z,42.40
2023-05-21T17:26:33.425Z,43.40
2023-05-21T17:30:15.415Z,42.90
2023-05-21T17:33:57.352Z,43.10
2023-05-21T17:37:39.278Z,43.00
2023-05-21T17:41:24.194Z,42.10
2023-05-21T17:45:06.457Z,43.30
2023-05-21T17:48:48.386Z,44.40
2023-05-21T17:52:30.282Z,44.00
2023-05-21T17:56:12.177Z,43.40
2023-05-21T17:59:55.313Z,43.60
2023-05-21T18:03:37.177Z,44.20
2023-05-21T18:07:19.056Z,45.00
2023-05-21T18:11:01.684Z,44.80
2023-05-21T18:14:43.546Z,45.30
2023-05-21T18:18:25.798Z,44.90
2023-05-21T18:22:08.233Z,45.40
2023-05-21T18:25:50.739Z,45.70
2023-05-21T18:29:32.704Z,46.20
2023-05-21T18:33:15.597Z,46.80
2023-05-21T18:36:58.917Z,47.00
2023-05-21T18:40:41.254Z,47.30
2023-05-21T18:44:23.186Z,47.20
2023-05-21T18:48:05.499Z,47.70
2023-05-21T18:51:47.462Z,47.60
2023-05-21T18:55:29.316Z,48.20
2023-05-21T18:59:11.184Z,48.40
2023-05-21T19:02:53.152Z,48.70
2023-05-21T19:06:35.082Z,48.20
2023-05-21T19:10:18.275Z,48.60
2023-05-21T19:14:00.880Z,48.90
2023-05-21T19:17:42.838Z,49.30
2023-05-21T19:21:25.317Z,49.40
2023-05-21T19:25:07.460Z,49.60
2023-05-21T19:28:53.977Z,49.70
2023-05-21T19:32:36.119Z,50.00
2023-05-21T19:36:18.728Z,50.20
2023-05-21T19:40:00.577Z,51.10
2023-05-21T19:43:42.554Z,51.10
2023-05-21T19:47:24.599Z,51.30
2023-05-21T19:51:06.526Z,51.90
2023-05-21T19:54:48.360Z,52.00
2023-05-21T19:58:30.510Z,52.20
2023-05-21T20:02:13.321Z,52.50
2023-05-21T20:05:55.238Z,52.90
2023-05-21T20:09:37.591Z,53.20
2023-05-21T20:13:21.324Z,53.40
2023-05-21T20:17:05.678Z,53.70
2023-05-21T20:20:47.811Z,53.90
2023-05-21T20:24:29.758Z,54.30
2023-05-21T20:28:12.210Z,54.40
2023-05-21T20:31:54.099Z,54.60
2023-05-21T20:35:36.003Z,55.30
2023-05-21T20:39:19.044Z,55.40
2023-05-21T20:43:01.745Z,55.80
2023-05-21T20:46:43.684Z,56.30
2023-05-21T20:50:25.916Z,56.40
2023-05-21T20:54:07.948Z,56.80
2023-05-21T20:57:49.787Z,57.60
2023-05-21T21:01:31.901Z,58.00
2023-05-21T21:05:13.811Z,58.20
2023-05-21T21:08:56.047Z,58.50
2023-05-21T21:12:38.144Z,59.10
2023-05-21T21:16:20.038Z,58.70
2023-05-21T21:20:01.984Z,58.70
2023-05-21T21:23:43.945Z,58.80
2023-05-21T21:27:25.879Z,59.40
2023-05-21T21:31:07.762Z,59.30
2023-05-21T21:34:49.630Z,59.60
2023-05-21T21:38:31.495Z,59.90
2023-05-21T21:42:13.430Z,60.30
2023-05-21T21:45:55.533Z,60.30
2023-05-21T21:49:37.449Z,60.80
2023-05-21T21:53:19.414Z,60.60
2023-05-21T21:57:01.537Z,60.90
2023-05-21T22:00:43.606Z,61.20
2023-05-21T22:04:25.619Z,61.40
2023-05-21T22:08:07.496Z,61.50
2023-05-21T22:11:49.514Z,61.70
2023-05-21T22:15:32.340Z,61.90
2023-05-21T22:19:15.767Z,61.80
2023-05-21T22:22:58.597Z,62.30
2023-05-21T22:26:40.514Z,62.60
2023-05-21T22:30:22.344Z,63.00
2023-05-21T22:34:04.199Z,63.40
2023-05-21T22:37:46.974Z,63.60
2023-05-21T22:41:28.845Z,63.70
2023-05-21T22:45:11.080Z,63.80
2023-05-21T22:48:53.981Z,63.80
2023-05-21T22:52:38.153Z,63.90
2023-05-21T22:56:19.978Z,63.90
2023-05-21T23:00:01.818Z,63.80
2023-05-21T23:03:43.784Z,64.00
2023-05-21T23:07:25.876Z,64.20
2023-05-21T23:11:07.742Z,64.50
2023-05-21T23:14:49.576Z,64.60
2023-05-21T23:18:32.777Z,64.60
2023-05-21T23:22:14.606Z,65.00
2023-05-21T23:25:57.799Z,64.50
2023-05-21T23:29:39.835Z,64.80
2023-05-21T23:33:21.673Z,65.00
2023-05-21T23:37:06.598Z,65.60
2023-05-21T23:40:48.460Z,65.50
2023-05-21T23:44:30.329Z,65.70
2023-05-21T23:48:12.212Z,65.90
2023-05-21T23:51:54.313Z,66.10
2023-05-21T23:55:36.552Z,66.00
2023-05-21T23:59:18.633Z,66.10
